Bay Islands (Utila), Honduras
Current Conditions -  °F | °C
As of 7:00 AM on Thursday 18 Dec 2014 (Local Time) from MHLC Reporting Station
Few Clouds Few Clouds  
Wind Chill: 64°   Ceiling: Unl
Heat Index: 64°   Visibility: 6mi
Dew Point: 63°   Wind: 2mph
Humidity: 94%   Direction: 170°S
Pressure: 30.03"   Gusts: NA
Location:  16.1°N, 86.95°W
Report Text: MHLC 181300Z 17002KT 9999 FEW028 18/17 Q1017 A3005 NOSIG
Loading
Personal Weather Stations






























Interactive Weather Map New forecast layout! Learn more

10-Day Weather Forecast

Advertisements
Track Severe Weather on mobile